KCRW/CRW METAR and TAF weather

Enter ICAO airport designator
Station Type Date Time Source
KCRW METAR 2022/01/26 18:54 UTC NOAA

KCRW 261854Z VRB04KT 10SM CLR M04/M14 A3039 RMK AO2 SLP303 T10391144


Station Type Date Time Source
KCRW Decoded METAR 2022/01/26 18:54 UTC NOAA

YEAGER AIRPORT, WV, United States (KCRW) 38-22N 081-36W 309M
Jan 26, 2022 - 01:54 PM EST / 2022.01.26 1854 UTC
Wind: Variable at 5 MPH (4 KT):0
Visibility: 10 mile(s):0
Sky conditions: clear
Temperature: 25.0 F (-3.9 C)
Windchill: 19 F (-7 C):1
Dew Point: 6.1 F (-14.4 C)
Relative Humidity: 43%
Pressure (altimeter): 30.39 in. Hg (1029 hPa)
ob: KCRW 261854Z VRB04KT 10SM CLR M04/M14 A3039 RMK AO2 SLP303 T10391144
cycle: 19

Station Type Date Time Source
KCRW TAF 2022/01/26 18:24 UTC NOAA

TAF KCRW 261722Z 2618/2718 VRB03KT P6SM SCT030
FM262100 32003KT P6SM SKC
FM270000 00000KT P6SM SKC
FM271300 VRB03KT P6SM FEW210

Example: see airport list